Time;durP1;ratioP1;P1;durP2;ratioP2;P2;SDS_P1;SDS_P2;PMS_P1;PMS_P2;Temp;Humidity;BMP_temperature;BMP_pressure;BME280_temperature;BME280_humidity;BME280_pressure;Samples;Min_cycle;Max_cycle;Signal;HPM_P1;HPM_P2
2022/08/02 00:02:25;;;;;;;8.60;3.05;;;13.10;99.90;;;;;;5038137;28;20050;-46
2022/08/02 00:04:52;;;;;;;6.20;3.10;;;13.10;99.90;;;;;;5017243;28;20911;-49
2022/08/02 00:07:18;;;;;;;6.60;3.30;;;13.10;99.90;;;;;;5037440;28;20029;-46
2022/08/02 00:09:44;;;;;;;10.57;3.30;;;13.10;99.90;;;;;;5039518;28;20409;-49
2022/08/02 00:12:09;;;;;;;5.53;3.00;;;13.10;99.90;;;;;;5036945;28;20033;-49
2022/08/02 00:14:35;;;;;;;9.98;3.72;;;13.10;99.90;;;;;;5032470;28;20499;-50
2022/08/02 00:17:01;;;;;;;6.22;3.63;;;13.10;99.90;;;;;;5035949;28;20051;-50
2022/08/02 00:19:26;;;;;;;7.55;3.45;;;13.10;99.90;;;;;;5031731;28;20041;-50
2022/08/02 00:21:52;;;;;;;7.72;4.18;;;13.10;99.90;;;;;;5033905;28;20404;-49
2022/08/02 00:24:17;;;;;;;8.45;4.30;;;13.10;99.90;;;;;;5034629;28;20048;-47
2022/08/02 00:26:43;;;;;;;8.30;4.13;;;13.10;99.90;;;;;;5035205;28;20400;-46
2022/08/02 00:29:09;;;;;;;6.65;4.13;;;13.10;99.90;;;;;;5032519;28;20049;-50
2022/08/02 00:31:34;;;;;;;9.95;4.45;;;13.10;99.90;;;;;;5032841;28;20032;-51
2022/08/02 00:34:00;;;;;;;6.65;4.90;;;13.10;99.90;;;;;;5034829;28;20037;-47
2022/08/02 00:36:25;;;;;;;7.65;5.10;;;13.10;99.90;;;;;;5034165;28;20038;-50
2022/08/02 00:38:51;;;;;;;9.15;4.72;;;13.10;99.90;;;;;;5036850;28;20044;-49
2022/08/02 00:41:19;;;;;;;7.97;4.90;;;13.10;99.90;;;;;;5044663;28;20051;-47
2022/08/02 00:43:46;;;;;;;8.60;5.10;;;13.00;99.90;;;;;;5042187;28;20045;-48
2022/08/02 00:46:13;;;;;;;9.88;5.30;;;13.00;99.90;;;;;;5047353;28;20033;-51
2022/08/02 00:48:38;;;;;;;12.75;5.40;;;13.00;99.90;;;;;;5042487;28;20046;-48
2022/08/02 00:51:04;;;;;;;9.07;4.85;;;13.00;99.90;;;;;;5046338;28;20045;-48
2022/08/02 00:53:30;;;;;;;8.88;5.35;;;13.00;99.90;;;;;;5041693;28;20037;-50
2022/08/02 00:55:56;;;;;;;9.60;4.78;;;13.00;99.90;;;;;;5046612;28;20033;-48
2022/08/02 00:58:21;;;;;;;8.70;4.85;;;12.90;99.90;;;;;;5036944;28;20048;-49
2022/08/02 01:00:47;;;;;;;10.57;5.15;;;12.90;99.90;;;;;;5037528;28;20412;-48
2022/08/02 01:03:12;;;;;;;12.18;5.28;;;12.90;99.90;;;;;;5045232;28;20461;-46
2022/08/02 01:05:38;;;;;;;9.75;4.75;;;12.80;99.90;;;;;;5044659;28;20063;-51
2022/08/02 01:08:04;;;;;;;11.65;5.50;;;12.80;99.90;;;;;;5044384;28;20041;-48
2022/08/02 01:10:29;;;;;;;9.98;5.18;;;12.70;99.90;;;;;;5044357;28;20536;-49
2022/08/02 01:12:55;;;;;;;6.40;4.68;;;12.70;99.90;;;;;;5042405;28;20056;-50
2022/08/02 01:15:21;;;;;;;7.50;5.22;;;12.60;99.90;;;;;;5042825;28;20087;-49
2022/08/02 01:17:57;;;;;;;7.25;4.97;;;12.60;99.90;;;;;;5043049;28;20056;-46
2022/08/02 01:20:44;;;;;;;8.38;4.78;;;12.50;99.90;;;;;;5049345;28;20041;-46
2022/08/02 01:23:39;;;;;;;8.02;5.07;;;12.50;99.90;;;;;;5038862;28;20492;-49
2022/08/02 01:26:39;;;;;;;8.80;4.43;;;12.50;99.90;;;;;;5042680;28;20037;-47
2022/08/02 01:29:32;;;;;;;6.82;4.38;;;12.50;99.90;;;;;;5044121;28;20381;-51
2022/08/02 01:32:09;;;;;;;8.13;5.00;;;12.40;99.90;;;;;;5046580;28;20044;-47
2022/08/02 01:34:38;;;;;;;9.90;4.55;;;12.30;99.90;;;;;;5045157;28;20041;-46
2022/08/02 01:37:20;;;;;;;9.98;4.93;;;12.30;99.90;;;;;;5046663;28;20041;-48
2022/08/02 01:40:01;;;;;;;9.25;4.55;;;12.50;99.90;;;;;;5045755;28;20049;-47
2022/08/02 01:42:28;;;;;;;9.05;5.35;;;12.40;99.90;;;;;;5039023;28;20083;-50
2022/08/02 01:44:55;;;;;;;10.02;4.43;;;12.30;99.90;;;;;;5029413;28;20069;-47
2022/08/02 01:47:27;;;;;;;8.85;4.93;;;12.40;99.90;;;;;;5029454;28;20120;-48
2022/08/02 01:49:56;;;;;;;7.50;4.63;;;12.30;99.90;;;;;;5039067;28;20582;-49
2022/08/02 01:52:25;;;;;;;11.13;5.68;;;12.30;99.90;;;;;;5014723;28;20059;-46
2022/08/02 01:55:11;;;;;;;11.23;5.75;;;12.20;99.90;;;;;;5031501;28;20056;-50
2022/08/02 01:57:46;;;;;;;8.27;5.20;;;12.20;99.90;;;;;;5033385;28;20040;-48
2022/08/02 02:00:15;;;;;;;9.15;5.15;;;12.20;99.90;;;;;;5033054;28;20048;-50
2022/08/02 02:02:46;;;;;;;10.23;6.10;;;12.20;99.90;;;;;;5032796;28;20217;-50
2022/08/02 02:05:31;;;;;;;12.38;5.80;;;;;;;;;;5032915;28;20132;-48
2022/08/02 02:07:59;;;;;;;9.60;5.32;;;12.10;99.90;;;;;;5028219;28;20040;-48
2022/08/02 02:10:29;;;;;;;12.80;5.80;;;;;;;;;;5030608;28;20369;-51
2022/08/02 02:12:59;;;;;;;9.05;5.35;;;12.10;99.90;;;;;;5030529;28;20456;-46
2022/08/02 02:15:25;;;;;;;9.48;5.32;;;12.10;99.90;;;;;;5033506;28;20045;-50
2022/08/02 02:17:54;;;;;;;7.38;5.32;;;12.10;99.90;;;;;;5032183;28;20064;-47
2022/08/02 02:20:21;;;;;;;10.93;5.95;;;;;;;;;;5031857;28;20143;-47
2022/08/02 02:22:47;;;;;;;8.07;5.80;;;;;;;;;;5012666;28;20048;-46
2022/08/02 02:25:14;;;;;;;12.05;6.43;;;;;;;;;;5037049;28;20045;-48
2022/08/02 02:27:52;;;;;;;9.00;6.15;;;;;;;;;;5036151;28;20048;-52
2022/08/02 02:30:18;;;;;;;13.70;6.13;;;11.70;99.90;;;;;;5033368;28;20042;-51
2022/08/02 02:32:46;;;;;;;12.20;6.20;;;11.80;99.90;;;;;;5033968;28;20108;-48
2022/08/02 02:35:15;;;;;;;9.48;5.05;;;11.80;99.90;;;;;;5025507;28;20112;-47
2022/08/02 02:37:43;;;;;;;10.40;5.80;;;11.80;99.90;;;;;;5033716;28;20172;-48
2022/08/02 02:40:11;;;;;;;7.32;5.80;;;11.70;99.90;;;;;;5081167;22;20085;-69
2022/08/02 02:42:38;;;;;;;10.35;6.13;;;11.80;99.90;;;;;;5026368;28;20497;-71
2022/08/02 02:45:04;;;;;;;11.05;5.95;;;11.70;99.90;;;;;;5022985;28;20049;-72
2022/08/02 02:47:33;;;;;;;10.38;6.28;;;11.70;99.90;;;;;;5022814;28;20498;-71
2022/08/02 02:49:59;;;;;;;11.18;6.63;;;11.70;99.90;;;;;;5025054;28;20037;-72
2022/08/02 02:52:25;;;;;;;10.00;5.50;;;11.60;99.90;;;;;;5025058;28;20087;-71
2022/08/02 02:54:52;;;;;;;11.15;5.60;;;11.80;99.90;;;;;;5024263;28;20053;-72
2022/08/02 02:57:19;;;;;;;13.65;5.90;;;11.80;99.90;;;;;;5005725;28;20057;-69
2022/08/02 02:59:46;;;;;;;8.73;6.20;;;11.80;99.90;;;;;;5024795;28;20076;-70
2022/08/02 03:02:13;;;;;;;10.38;5.90;;;11.80;99.90;;;;;;5024136;28;20049;-70
2022/08/02 03:04:40;;;;;;;10.48;6.35;;;11.80;99.90;;;;;;5022754;28;20393;-71
2022/08/02 03:07:07;;;;;;;9.57;6.32;;;11.80;99.90;;;;;;5024848;28;20494;-69
2022/08/02 03:09:32;;;;;;;10.57;6.38;;;11.80;99.90;;;;;;5027312;28;20040;-71
2022/08/02 03:11:58;;;;;;;12.60;6.32;;;11.80;99.90;;;;;;5010893;28;20042;-72
2022/08/02 03:14:24;;;;;;;10.68;5.95;;;11.80;99.90;;;;;;5032792;28;20038;-70
2022/08/02 03:16:52;;;;;;;13.65;6.55;;;11.80;99.90;;;;;;5028860;28;20571;-71
2022/08/02 03:19:21;;;;;;;9.40;6.22;;;11.80;99.90;;;;;;5008900;28;20124;-71
2022/08/02 03:21:48;;;;;;;8.07;6.00;;;11.80;99.90;;;;;;5025115;28;20042;-71
2022/08/02 03:24:14;;;;;;;8.83;6.43;;;11.80;99.90;;;;;;5023985;28;20041;-73
2022/08/02 03:26:40;;;;;;;9.80;6.10;;;11.70;99.90;;;;;;5009803;28;20095;-73
2022/08/02 03:29:06;;;;;;;11.02;6.30;;;11.70;99.90;;;;;;5030472;28;20045;-72
2022/08/02 03:31:31;;;;;;;9.18;6.63;;;11.70;99.90;;;;;;5022218;28;20120;-72
2022/08/02 03:33:59;;;;;;;14.60;6.82;;;11.70;99.90;;;;;;5029053;28;20101;-71
2022/08/02 03:36:27;;;;;;;12.80;7.22;;;11.60;99.90;;;;;;5030268;28;20048;-71
2022/08/02 03:38:54;;;;;;;11.25;6.55;;;11.60;99.90;;;;;;5029364;28;20137;-71
2022/08/02 03:41:21;;;;;;;9.95;6.60;;;11.70;99.90;;;;;;5024114;28;20050;-71
2022/08/02 03:43:49;;;;;;;12.73;7.38;;;11.60;99.90;;;;;;5025446;28;20219;-71
2022/08/02 03:46:18;;;;;;;12.73;7.40;;;11.60;99.90;;;;;;5039957;28;20099;-72
2022/08/02 03:48:44;;;;;;;15.52;7.53;;;11.60;99.90;;;;;;5020091;28;20049;-72
2022/08/02 03:51:10;;;;;;;14.05;7.78;;;11.60;99.90;;;;;;5023766;28;20038;-72
2022/08/02 03:53:37;;;;;;;11.45;6.93;;;11.70;99.90;;;;;;5023549;28;20037;-70
2022/08/02 03:56:04;;;;;;;14.05;7.78;;;11.90;99.90;;;;;;5004851;28;20045;-71
2022/08/02 03:58:31;;;;;;;12.95;7.80;;;;;;;;;;5026093;28;20044;-70
2022/08/02 04:00:57;;;;;;;13.40;7.50;;;11.70;99.90;;;;;;5010936;28;20471;-71
2022/08/02 04:03:23;;;;;;;13.27;7.78;;;11.70;99.90;;;;;;5028611;28;20143;-71
2022/08/02 04:05:49;;;;;;;11.20;7.40;;;11.80;99.90;;;;;;5027093;28;20076;-71
2022/08/02 04:08:15;;;;;;;15.27;7.60;;;11.80;99.90;;;;;;5027152;28;20083;-70
2022/08/02 04:13:32;;;;;;;10.38;8.13;;;11.80;99.90;;;;;;5009090;28;20049;-72
2022/08/02 04:16:03;;;;;;;11.02;6.95;;;11.90;99.90;;;;;;5027596;28;20049;-72
2022/08/02 04:18:38;;;;;;;13.35;7.25;;;11.90;99.90;;;;;;5028315;28;20501;-72
2022/08/02 04:21:06;;;;;;;14.38;8.13;;;12.00;99.90;;;;;;5027976;28;20347;-72
2022/08/02 04:23:35;;;;;;;14.43;7.57;;;12.20;99.90;;;;;;5028458;28;20449;-72
2022/08/02 04:26:02;;;;;;;14.50;7.57;;;12.10;99.90;;;;;;5030425;28;20034;-72
2022/08/02 04:28:29;;;;;;;13.43;7.20;;;12.10;99.90;;;;;;5014621;28;20098;-72
2022/08/02 04:30:56;;;;;;;13.68;7.47;;;12.30;99.90;;;;;;5034500;28;20096;-76
2022/08/02 04:33:22;;;;;;;12.65;7.72;;;12.40;99.90;;;;;;5037511;28;21107;-73
2022/08/02 04:35:48;;;;;;;12.57;7.72;;;12.40;99.90;;;;;;5028944;28;20076;-71
2022/08/02 04:38:14;;;;;;;10.90;7.53;;;12.50;99.90;;;;;;5027817;28;20120;-70
2022/08/02 04:40:52;;;;;;;12.50;7.72;;;12.60;99.90;;;;;;5025186;28;20065;-70
2022/08/02 04:43:20;;;;;;;11.95;7.10;;;12.60;99.90;;;;;;5028460;28;20046;-70
2022/08/02 04:45:48;;;;;;;15.00;8.25;;;12.70;99.90;;;;;;5028628;28;20425;-70
2022/08/02 04:48:14;;;;;;;12.05;7.72;;;12.70;99.90;;;;;;5029264;28;20387;-71
2022/08/02 04:50:39;;;;;;;10.43;7.53;;;12.90;99.90;;;;;;5006314;28;20053;-71
2022/08/02 04:53:05;;;;;;;11.73;7.38;;;14.00;99.90;;;;;;5008096;28;20045;-70
2022/08/02 04:55:31;;;;;;;13.13;7.72;;;14.60;99.90;;;;;;5006857;28;20037;-70
2022/08/02 04:57:57;;;;;;;11.88;7.68;;;15.20;99.90;;;;;;5034968;28;20041;-73
2022/08/02 05:00:24;;;;;;;15.38;7.65;;;16.10;99.90;;;;;;5049512;28;20041;-74
2022/08/02 05:02:51;;;;;;;11.93;6.67;;;17.00;99.90;;;;;;5029240;28;20064;-74
2022/08/02 05:05:17;;;;;;;12.48;6.80;;;17.80;99.90;;;;;;5021528;28;20052;-72
2022/08/02 05:07:43;;;;;;;9.55;5.53;;;18.40;99.90;;;;;;5027265;28;20041;-73
2022/08/02 05:10:09;;;;;;;15.85;7.00;;;18.70;99.90;;;;;;5049803;28;20037;-73
2022/08/02 05:12:36;;;;;;;11.07;6.20;;;19.40;99.90;;;;;;5043691;28;20030;-73
2022/08/02 05:15:02;;;;;;;12.20;5.85;;;19.80;99.90;;;;;;5043087;28;20045;-75
2022/08/02 05:17:28;;;;;;;7.38;5.40;;;19.90;99.90;;;;;;5036517;28;20025;-75
2022/08/02 05:19:53;;;;;;;9.95;5.63;;;20.40;99.90;;;;;;5053307;28;20500;-75
2022/08/02 05:22:19;;;;;;;8.65;5.60;;;20.80;99.90;;;;;;5052502;28;20021;-74
2022/08/02 05:24:44;;;;;;;9.32;4.90;;;20.90;99.90;;;;;;5035306;28;20033;-74
2022/08/02 05:27:10;;;;;;;10.75;4.95;;;21.30;99.90;;;;;;5051612;28;20152;-76
2022/08/02 05:29:36;;;;;;;9.50;4.93;;;21.50;99.90;;;;;;5035524;28;20044;-76
2022/08/02 05:32:01;;;;;;;10.32;4.53;;;21.80;99.90;;;;;;5013756;28;20037;-72
2022/08/02 05:34:27;;;;;;;5.55;4.43;;;22.10;99.90;;;;;;5026897;28;20094;-73
2022/08/02 05:36:52;;;;;;;10.18;4.30;;;22.40;99.90;;;;;;5007017;28;20077;-74
2022/08/02 05:39:18;;;;;;;8.27;4.20;;;22.60;99.90;;;;;;5025059;28;20639;-74
2022/08/02 05:41:43;;;;;;;5.80;3.85;;;23.10;99.90;;;;;;5007414;28;20046;-73
2022/08/02 05:44:09;;;;;;;8.70;3.92;;;23.40;99.90;;;;;;5029284;28;20029;-75
2022/08/02 05:46:34;;;;;;;6.45;4.00;;;23.20;99.90;;;;;;5002297;28;20053;-73
2022/08/02 05:49:00;;;;;;;8.95;3.75;;;23.20;99.90;;;;;;5020283;28;20034;-77
2022/08/02 05:51:48;;;;;;;7.20;3.72;;;23.60;99.90;;;;;;5017471;28;20045;-74
2022/08/02 05:54:25;;;;;;;7.95;3.40;;;23.90;99.90;;;;;;5019287;28;20033;-76
2022/08/02 05:57:04;;;;;;;9.65;3.40;;;24.00;99.90;;;;;;5017897;28;20049;-75
2022/08/02 06:00:00;;;;;;;5.93;3.05;;;24.20;99.90;;;;;;5020780;28;20053;-74
2022/08/02 06:03:02;;;;;;;8.03;3.20;;;25.00;99.90;;;;;;5033584;28;20045;-75
2022/08/02 06:05:33;;;;;;;6.35;2.80;;;24.90;99.90;;;;;;5031249;28;20042;-76
2022/08/02 06:07:59;;;;;;;6.07;2.97;;;25.20;99.90;;;;;;5023688;28;20042;-77
2022/08/02 06:10:26;;;;;;;6.82;3.20;;;25.50;99.90;;;;;;5025513;28;20018;-77
2022/08/02 06:13:17;;;;;;;9.18;3.03;;;25.60;99.20;;;;;;5030188;28;20036;-76
2022/08/02 06:15:42;;;;;;;6.25;3.08;;;25.50;99.50;;;;;;5008844;28;20532;-71
2022/08/02 06:18:09;;;;;;;6.72;2.47;;;25.20;98.10;;;;;;5007752;28;20074;-74
2022/08/02 06:20:35;;;;;;;6.32;2.60;;;25.50;99.20;;;;;;5005072;28;20091;-73
2022/08/02 06:23:07;;;;;;;7.53;2.97;;;26.00;99.00;;;;;;5004490;28;20397;-70
2022/08/02 06:25:35;;;;;;;7.30;2.88;;;26.30;97.90;;;;;;5006352;28;20040;-70
2022/08/02 06:28:03;;;;;;;8.38;2.50;;;26.20;96.80;;;;;;5004244;28;20163;-70
2022/08/02 06:30:30;;;;;;;5.60;2.40;;;26.20;98.20;;;;;;5006408;28;20061;-69
2022/08/02 06:32:56;;;;;;;7.40;2.70;;;26.20;97.90;;;;;;5005016;28;20037;-72
2022/08/02 06:35:28;;;;;;;6.13;2.50;;;26.40;97.30;;;;;;5005812;28;20057;-74
2022/08/02 06:37:59;;;;;;;5.00;2.22;;;26.60;97.30;;;;;;5004977;28;20042;-72
2022/08/02 06:40:33;;;;;;;5.00;2.20;;;26.50;97.20;;;;;;5013507;28;20053;-71
2022/08/02 06:43:14;;;;;;;6.55;2.35;;;27.00;97.00;;;;;;5022902;28;20049;-68
2022/08/02 06:45:40;;;;;;;6.47;2.17;;;26.80;96.70;;;;;;5024201;28;20041;-70
2022/08/02 06:48:07;;;;;;;7.13;2.30;;;27.30;96.00;;;;;;5031326;28;20038;-71
2022/08/02 06:50:36;;;;;;;6.93;2.53;;;27.00;95.00;;;;;;5030287;28;20111;-69
2022/08/02 06:53:03;;;;;;;8.65;2.33;;;27.20;96.30;;;;;;5023470;28;20041;-70
2022/08/02 06:55:31;;;;;;;4.82;2.05;;;27.30;95.40;;;;;;5024835;28;20052;-69
2022/08/02 06:57:57;;;;;;;4.82;2.33;;;27.20;95.70;;;;;;5025577;28;20045;-69
2022/08/02 07:00:22;;;;;;;4.85;2.35;;;27.30;94.20;;;;;;5023288;28;20054;-71
2022/08/02 07:02:48;;;;;;;6.68;2.25;;;27.10;94.60;;;;;;5006773;28;20044;-70
2022/08/02 07:05:14;;;;;;;5.10;1.92;;;26.40;93.60;;;;;;5027876;28;20040;-73
2022/08/02 07:07:40;;;;;;;5.13;2.13;;;26.10;97.60;;;;;;5025890;28;20042;-73
2022/08/02 07:10:06;;;;;;;4.85;2.03;;;26.30;94.30;;;;;;5028806;28;20132;-72
2022/08/02 07:12:33;;;;;;;6.45;2.00;;;26.40;94.10;;;;;;5021602;28;20041;-70
2022/08/02 07:14:59;;;;;;;3.78;2.10;;;26.10;93.80;;;;;;5025324;28;20045;-68
2022/08/02 07:17:26;;;;;;;5.10;2.33;;;26.40;94.10;;;;;;5023285;28;20402;-67
2022/08/02 07:19:51;;;;;;;4.28;1.83;;;26.40;93.90;;;;;;5024079;28;20041;-71
2022/08/02 07:22:19;;;;;;;4.00;1.83;;;26.70;93.90;;;;;;5022649;28;20049;-70
2022/08/02 07:24:44;;;;;;;5.75;1.92;;;27.20;93.90;;;;;;5007448;28;20060;-69
2022/08/02 07:27:10;;;;;;;5.28;2.10;;;27.70;92.40;;;;;;5026134;28;20045;-70
2022/08/02 07:29:35;;;;;;;5.45;1.80;;;27.50;93.10;;;;;;5027901;28;20049;-69
2022/08/02 07:32:01;;;;;;;4.13;1.67;;;27.80;92.50;;;;;;5022227;28;20059;-70
2022/08/02 07:34:26;;;;;;;2.80;1.60;;;28.10;91.90;;;;;;5001066;28;20045;-69
2022/08/02 07:36:52;;;;;;;3.53;1.60;;;27.50;92.20;;;;;;5023951;28;20109;-71
2022/08/02 07:39:17;;;;;;;3.35;1.60;;;26.90;94.90;;;;;;5019234;28;20447;-73
2022/08/02 07:41:45;;;;;;;4.72;1.80;;;26.20;92.20;;;;;;5019855;28;20132;-72
2022/08/02 07:44:10;;;;;;;6.07;1.92;;;25.80;92.80;;;;;;5026487;28;20069;-73
2022/08/02 07:46:36;;;;;;;4.18;1.92;;;25.10;93.40;;;;;;5020851;28;20165;-71
2022/08/02 07:49:02;;;;;;;5.55;1.80;;;24.60;93.40;;;;;;5027911;28;20049;-71
2022/08/02 07:51:30;;;;;;;2.13;1.70;;;24.20;94.40;;;;;;5026099;28;20405;-71
2022/08/02 07:53:55;;;;;;;5.05;2.17;;;24.40;94.70;;;;;;5038957;28;20040;-68
2022/08/02 07:56:21;;;;;;;5.03;2.15;;;24.20;95.30;;;;;;5031899;28;20128;-69
2022/08/02 07:58:47;;;;;;;4.80;1.95;;;24.20;96.00;;;;;;5017013;28;20477;-69
2022/08/02 08:01:12;;;;;;;3.38;2.00;;;24.30;95.70;;;;;;5016449;28;20044;-69
2022/08/02 08:03:38;;;;;;;6.30;2.08;;;24.50;95.70;;;;;;5016308;28;20130;-69
2022/08/02 08:06:03;;;;;;;3.28;2.08;;;24.40;95.60;;;;;;4998189;28;20490;-69
2022/08/02 08:08:29;;;;;;;3.97;2.30;;;24.40;95.60;;;;;;5029225;28;20452;-69
2022/08/02 08:10:55;;;;;;;5.22;2.17;;;24.60;95.60;;;;;;5035235;28;20045;-69
2022/08/02 08:13:20;;;;;;;4.38;2.25;;;24.40;95.40;;;;;;5034094;28;20091;-69
2022/08/02 08:15:46;;;;;;;4.80;2.00;;;24.10;95.20;;;;;;5031392;28;20049;-69
2022/08/02 08:18:12;;;;;;;5.78;2.13;;;24.30;95.30;;;;;;5035294;28;20056;-70
2022/08/02 08:20:37;;;;;;;7.20;2.15;;;24.30;96.10;;;;;;5030105;28;20038;-70
2022/08/02 08:23:03;;;;;;;6.72;2.25;;;24.30;95.30;;;;;;5015656;28;20104;-69
2022/08/02 08:25:28;;;;;;;4.30;1.90;;;24.40;95.70;;;;;;4998143;28;20053;-69
2022/08/02 08:27:54;;;;;;;3.47;1.73;;;24.40;94.50;;;;;;5026454;28;20409;-69
2022/08/02 08:30:21;;;;;;;5.45;2.20;;;24.50;95.50;;;;;;5027791;28;20056;-69
2022/08/02 08:32:47;;;;;;;3.47;1.70;;;24.70;95.30;;;;;;5033088;28;20049;-69
2022/08/02 08:35:14;;;;;;;5.03;1.83;;;24.90;94.10;;;;;;4997916;28;20046;-70
2022/08/02 08:37:39;;;;;;;5.28;1.85;;;24.80;92.90;;;;;;5033022;28;20048;-70
2022/08/02 08:40:07;;;;;;;4.38;1.80;;;24.70;93.40;;;;;;5030240;28;20042;-69
2022/08/02 08:42:34;;;;;;;3.30;1.40;;;25.00;92.60;;;;;;5032610;28;20050;-70
2022/08/02 08:45:00;;;;;;;4.60;1.60;;;25.00;91.90;;;;;;5014470;28;20520;-73
2022/08/02 08:47:36;;;;;;;4.53;1.60;;;24.90;92.00;;;;;;5034435;28;20132;-71
2022/08/02 08:50:23;;;;;;;3.15;1.60;;;24.90;92.10;;;;;;5036204;28;20527;-69
2022/08/02 08:53:02;;;;;;;4.68;1.50;;;24.90;92.00;;;;;;5028139;28;20122;-70
2022/08/02 08:55:28;;;;;;;4.35;1.65;;;25.10;92.90;;;;;;5030229;28;20063;-70
2022/08/02 08:57:56;;;;;;;4.05;1.80;;;25.30;93.50;;;;;;5033004;28;20562;-75
2022/08/02 09:00:22;;;;;;;2.72;1.52;;;25.20;92.40;;;;;;5034644;28;20111;-69
2022/08/02 09:02:48;;;;;;;3.10;1.60;;;25.40;92.80;;;;;;5031899;28;20057;-68
2022/08/02 09:05:15;;;;;;;2.58;1.60;;;25.60;93.30;;;;;;5015163;28;20129;-70
2022/08/02 09:07:43;;;;;;;4.03;1.88;;;25.60;92.60;;;;;;5025897;28;20041;-69
2022/08/02 09:10:35;;;;;;;3.47;2.10;;;25.40;92.80;;;;;;5025337;28;20084;-69
2022/08/02 09:13:28;;;;;;;2.97;1.70;;;25.50;92.80;;;;;;5029419;28;20034;-69
2022/08/02 09:16:03;;;;;;;6.07;2.25;;;25.50;93.20;;;;;;5012775;28;20144;-69
2022/08/02 09:18:34;;;;;;;5.80;1.70;;;25.80;93.10;;;;;;5023949;28;20052;-69
2022/08/02 09:21:02;;;;;;;3.95;1.70;;;25.90;92.30;;;;;;5028176;28;20103;-69
2022/08/02 09:23:39;;;;;;;1.55;1.40;;;26.00;92.50;;;;;;5024602;28;20172;-67
2022/08/02 09:26:08;;;;;;;2.75;1.70;;;26.30;93.20;;;;;;5031472;28;20079;-69
2022/08/02 09:28:37;;;;;;;4.43;1.92;;;26.40;92.90;;;;;;5025779;28;20034;-69
2022/08/02 09:31:13;;;;;;;4.22;1.67;;;26.50;92.70;;;;;;5031054;28;20398;-69
2022/08/02 09:33:40;;;;;;;4.35;1.42;;;26.60;92.50;;;;;;5034279;28;20050;-69
2022/08/02 09:36:12;;;;;;;3.50;1.80;;;26.80;92.50;;;;;;5032604;28;20406;-68
2022/08/02 09:38:39;;;;;;;3.25;1.48;;;26.90;92.10;;;;;;5029686;28;20049;-69
2022/08/02 09:41:18;;;;;;;4.47;2.10;;;26.90;92.30;;;;;;5026504;28;20111;-69
2022/08/02 09:43:44;;;;;;;4.90;1.90;;;26.90;92.30;;;;;;5028050;28;20044;-69
2022/08/02 09:46:17;;;;;;;3.70;1.80;;;26.90;92.30;;;;;;5034059;28;20163;-69
2022/08/02 09:49:12;;;;;;;3.20;1.90;;;26.90;92.60;;;;;;5031943;28;20045;-68
2022/08/02 09:51:49;;;;;;;3.45;2.25;;;27.20;92.40;;;;;;5027988;28;20038;-69
2022/08/02 09:54:20;;;;;;;4.45;2.05;;;27.20;92.10;;;;;;5025696;28;20056;-70
2022/08/02 09:56:49;;;;;;;5.15;2.00;;;27.20;91.50;;;;;;5026386;28;20091;-69
2022/08/02 09:59:16;;;;;;;5.00;2.30;;;27.40;92.80;;;;;;5025722;28;20049;-69
2022/08/02 10:01:43;;;;;;;3.60;2.25;;;27.30;92.70;;;;;;5023090;28;20069;-68
2022/08/02 10:04:12;;;;;;;4.57;3.08;;;27.70;93.20;;;;;;5030397;28;20048;-69
2022/08/02 10:06:39;;;;;;;7.85;3.38;;;27.70;93.00;;;;;;5029018;28;20044;-69
2022/08/02 10:09:10;;;;;;;3.58;2.63;;;27.80;94.30;;;;;;5028891;28;20482;-69
2022/08/02 10:11:35;;;;;;;3.83;2.70;;;27.60;92.70;;;;;;5026137;28;20076;-69
2022/08/02 10:14:07;;;;;;;5.45;2.88;;;27.70;93.90;;;;;;5026963;28;21501;-70
2022/08/02 10:16:35;;;;;;;4.50;2.80;;;27.60;92.90;;;;;;5029701;28;20406;-69
2022/08/02 10:19:03;;;;;;;3.90;2.92;;;27.70;94.00;;;;;;5026340;28;20094;-70
2022/08/02 10:21:38;;;;;;;5.72;3.22;;;27.60;93.70;;;;;;5024118;28;20096;-70
2022/08/02 10:24:16;;;;;;;4.85;3.10;;;27.50;94.20;;;;;;5025125;28;20049;-73
2022/08/02 10:26:44;;;;;;;3.85;3.40;;;27.60;94.20;;;;;;5025514;28;20094;-70
2022/08/02 10:29:14;;;;;;;4.43;2.85;;;27.70;94.20;;;;;;5024946;28;20049;-70
2022/08/02 10:31:45;;;;;;;4.72;2.83;;;28.00;94.80;;;;;;5024646;28;20087;-68
2022/08/02 10:34:15;;;;;;;8.68;3.20;;;28.00;94.20;;;;;;5025704;28;20041;-70
2022/08/02 10:36:41;;;;;;;9.15;3.40;;;27.70;93.80;;;;;;5025390;28;20412;-69
2022/08/02 10:39:07;;;;;;;4.57;2.92;;;27.60;93.80;;;;;;5024752;28;20091;-69
2022/08/02 10:41:48;;;;;;;6.15;2.70;;;27.70;94.20;;;;;;5026826;28;20390;-69
2022/08/02 10:44:34;;;;;;;4.00;2.28;;;28.00;94.70;;;;;;5026480;28;20402;-70
2022/08/02 10:47:21;;;;;;;5.63;2.90;;;28.00;94.50;;;;;;5015194;28;20041;-70
2022/08/02 10:49:49;;;;;;;5.95;3.08;;;27.80;94.00;;;;;;5026872;28;20038;-68
2022/08/02 10:52:15;;;;;;;5.40;2.90;;;27.90;94.10;;;;;;5029041;28;20600;-68
2022/08/02 10:54:46;;;;;;;4.05;2.75;;;27.90;94.30;;;;;;5027696;28;20103;-67
2022/08/02 10:57:20;;;;;;;7.82;3.25;;;28.00;94.60;;;;;;5025233;28;20041;-68
2022/08/02 10:59:46;;;;;;;4.05;3.30;;;28.10;94.10;;;;;;5007283;28;20053;-67
2022/08/02 11:02:31;;;;;;;6.47;3.60;;;28.10;94.70;;;;;;5025941;28;20389;-68
2022/08/02 11:04:56;;;;;;;7.28;2.75;;;28.20;94.50;;;;;;5008698;28;20049;-70
2022/08/02 11:07:37;;;;;;;6.63;2.72;;;28.10;94.80;;;;;;5029906;28;20056;-71
2022/08/02 11:10:24;;;;;;;3.92;2.55;;;28.00;93.80;;;;;;5030548;28;20034;-70
2022/08/02 11:13:14;;;;;;;5.20;2.40;;;27.70;93.50;;;;;;5029537;28;20045;-70
2022/08/02 11:15:49;;;;;;;3.97;2.40;;;27.60;94.10;;;;;;5032923;28;20140;-70
2022/08/02 11:18:15;;;;;;;4.35;2.15;;;27.80;93.30;;;;;;5032614;28;20045;-68
2022/08/02 11:20:41;;;;;;;3.58;2.25;;;27.90;94.30;;;;;;5032641;28;20124;-67
2022/08/02 11:23:35;;;;;;;5.82;1.92;;;28.00;93.50;;;;;;5029355;28;20112;-68
2022/08/02 11:26:04;;;;;;;3.80;1.92;;;28.30;93.60;;;;;;5023216;28;20044;-68
2022/08/02 11:28:31;;;;;;;3.95;1.95;;;28.40;93.00;;;;;;4996861;28;20045;-68
2022/08/02 11:30:58;;;;;;;2.45;1.90;;;28.40;92.70;;;;;;5031747;28;20041;-69
2022/08/02 11:33:33;;;;;;;3.85;1.50;;;28.50;93.10;;;;;;5032257;28;20041;-67
2022/08/02 11:36:02;;;;;;;6.88;1.90;;;28.40;92.30;;;;;;5032972;28;20041;-69
2022/08/02 11:38:28;;;;;;;5.30;1.95;;;28.30;92.30;;;;;;5029776;28;20521;-70
2022/08/02 11:40:53;;;;;;;5.45;2.20;;;28.30;92.30;;;;;;5031713;28;20061;-71
2022/08/02 11:43:21;;;;;;;2.88;1.70;;;28.20;91.90;;;;;;5031462;28;20041;-70
2022/08/02 11:45:52;;;;;;;4.20;2.35;;;28.40;92.40;;;;;;5031865;28;20060;-70
2022/08/02 11:48:36;;;;;;;5.97;2.50;;;28.60;92.20;;;;;;5032794;28;20033;-72
2022/08/02 11:51:10;;;;;;;4.68;2.85;;;28.70;92.60;;;;;;5030105;28;20045;-70
2022/08/02 11:53:46;;;;;;;3.53;2.15;;;28.90;92.50;;;;;;4989712;28;20072;-67
2022/08/02 11:56:13;;;;;;;3.40;1.85;;;29.00;93.10;;;;;;5010354;28;20447;-68
2022/08/02 11:58:38;;;;;;;3.40;1.90;;;29.00;91.00;;;;;;5011205;28;20045;-69
2022/08/02 12:01:05;;;;;;;5.90;2.15;;;29.20;91.30;;;;;;5028384;28;20037;-68
2022/08/02 12:03:35;;;;;;;8.38;2.78;;;29.20;90.90;;;;;;5025816;28;20051;-68
2022/08/02 12:06:01;;;;;;;3.65;1.65;;;29.20;91.10;;;;;;5010378;28;20029;-73
2022/08/02 12:08:26;;;;;;;3.72;1.75;;;29.20;90.40;;;;;;5030889;28;20513;-73
2022/08/02 12:10:52;;;;;;;5.15;1.88;;;29.30;90.40;;;;;;5020582;28;20057;-73
2022/08/02 12:13:18;;;;;;;2.80;1.77;;;29.20;89.90;;;;;;5035121;28;20049;-73
2022/08/02 12:15:45;;;;;;;1.88;1.67;;;29.10;90.70;;;;;;5034851;28;20049;-73
2022/08/02 12:20:57;;;;;;;2.40;1.65;;;29.00;90.70;;;;;;5016257;28;20417;-73
2022/08/02 12:23:24;;;;;;;2.40;2.00;;;29.10;90.50;;;;;;5039793;28;20041;-74
2022/08/02 12:26:08;;;;;;;2.50;1.90;;;29.00;90.30;;;;;;5033320;28;20045;-70
2022/08/02 12:28:37;;;;;;;2.67;1.90;;;29.00;90.70;;;;;;5028441;28;20129;-69
2022/08/02 12:31:04;;;;;;;4.55;1.90;;;29.30;91.50;;;;;;5027203;28;20053;-69
2022/08/02 12:33:49;;;;;;;2.20;2.00;;;29.40;90.80;;;;;;5028793;28;20065;-69
2022/08/02 12:36:28;;;;;;;1.85;1.75;;;29.40;91.20;;;;;;5028149;28;20045;-69
2022/08/02 12:38:59;;;;;;;5.15;1.98;;;29.50;91.50;;;;;;5011835;28;20065;-69
2022/08/02 12:41:26;;;;;;;4.55;1.83;;;29.50;91.70;;;;;;5029624;28;20057;-69
2022/08/02 12:43:53;;;;;;;2.42;1.83;;;29.50;91.30;;;;;;5029110;28;20044;-68
2022/08/02 12:46:20;;;;;;;1.85;1.70;;;29.40;91.00;;;;;;5028370;28;20132;-70
2022/08/02 12:48:46;;;;;;;;;;;29.50;91.50;;;;;;5028855;28;20120;-68
2022/08/02 12:51:32;;;;;;;6.63;1.90;;;29.50;91.20;;;;;;5029931;28;20135;-69
2022/08/02 12:54:15;;;;;;;2.40;1.77;;;29.70;91.90;;;;;;5026967;28;20087;-68
2022/08/02 12:56:41;;;;;;;2.13;1.45;;;30.00;91.30;;;;;;5022833;28;20397;-69
2022/08/02 12:59:07;;;;;;;1.92;1.60;;;29.90;91.80;;;;;;5019509;28;20053;-69
2022/08/02 13:01:34;;;;;;;3.20;1.60;;;29.70;91.10;;;;;;5027641;28;20501;-68
2022/08/02 13:03:59;;;;;;;2.15;1.60;;;29.70;91.00;;;;;;5026167;28;20140;-69
2022/08/02 13:06:25;;;;;;;1.92;1.70;;;29.80;90.70;;;;;;5031907;28;20120;-68